MOL Explorer — 3EKT8 — position and weather

sailwx.info

Track history (hours):
 
Tides and Currents Weather Stations Pressure Air Temp Water Temp Dewpoint Dewpoint Depression Visibility Wind Speed Wind Dir Waves Ship Positions

MOL Explorer

Last reported at 2017-Jun-22 10:12 UTC. Time now 2017-Jun-23 08:37 UTC.
Position N 01°16' E 104°07'.

Length 293 m; draft 13.5 m.

Type: Ship (hazmat cat A). MMSI: 372827000.

Date/timePositionNaut miles runAvg speedWind from/ knotsBaromVisibWave heightAir tempDewpointWater temp
2017-Jun-22 10:12N 01°16' E 104°07'313.9
2017-Jun-22 10:00N 01°15' E 104°04'714.0
2017-Jun-22 09:30N 01°14' E 103°57'5 9.5
2017-Jun-22 09:00N 01°14' E 103°52'2 3.8
2017-Jun-22 08:30N 01°15' E 103°51'0 0.2
2017-Jun-22 07:58N 01°16' E 103°51'0 0.0
2017-Jun-22 07:25N 01°16' E 103°51'0 0.0
2017-Jun-22 06:46N 01°16' E 103°51'0 0.0
2017-Jun-22 06:28N 01°16' E 103°51'0 0.0
2017-Jun-22 05:55N 01°16' E 103°51'0 0.0
2017-Jun-22 05:19N 01°16' E 103°51'0 0.0
2017-Jun-22 04:58N 01°16' E 103°51'0 0.0
2017-Jun-22 04:28N 01°16' E 103°51'0 0.0
2017-Jun-22 03:55N 01°16' E 103°51'0 0.0
2017-Jun-22 03:16N 01°16' E 103°51'0 0.0
2017-Jun-22 02:55N 01°16' E 103°51'0 0.0
2017-Jun-22 02:13N 01°16' E 103°51'0 0.0
2017-Jun-22 01:52N 01°16' E 103°51'0 0.0
2017-Jun-22 01:25N 01°16' E 103°51'0 0.0
2017-Jun-22 00:55N 01°16' E 103°51'0 0.0
2017-Jun-22 00:25N 01°16' E 103°51'0 0.0
2017-Jun-21 23:55N 01°16' E 103°51'0 0.0
2017-Jun-21 23:04N 01°16' E 103°51'0 0.0
2017-Jun-21 22:49N 01°16' E 103°51'0 0.0
2017-Jun-21 22:25N 01°16' E 103°51'0 0.0
2017-Jun-21 21:49N 01°16' E 103°51'0 0.0
2017-Jun-21 21:25N 01°16' E 103°51'0 0.0
2017-Jun-21 20:55N 01°16' E 103°51'0 0.0
2017-Jun-21 20:28N 01°16' E 103°51'0 0.0
2017-Jun-21 19:58N 01°16' E 103°51'0 0.0
2017-Jun-21 19:25N 01°16' E 103°51'0 0.0
2017-Jun-21 18:55N 01°16' E 103°51'0 0.0
2017-Jun-21 18:28N 01°16' E 103°51'0 0.0
2017-Jun-21 17:58N 01°16' E 103°51'0 0.0
2017-Jun-21 17:19N 01°16' E 103°51'0 0.0
2017-Jun-21 16:49N 01°16' E 103°51'0 0.0
2017-Jun-21 16:19N 01°16' E 103°51'0 1.0
2017-Jun-21 16:01N 01°15' E 103°51'3 6.7
2017-Jun-21 15:31N 01°14' E 103°54'2 4.3
2017-Jun-21 15:00N 01°12' E 103°53'3 5.6
2017-Jun-21 14:30N 01°11' E 103°50'1010.0
2017-Jun-21 13:30N 01°05' E 103°42'612.8
2017-Jun-21 13:01N 01°04' E 103°36'815.7
2017-Jun-21 12:30N 01°08' E 103°29'816.0
2017-Jun-21 12:00N 01°12' E 103°22'6119.4
2017-Jun-21 08:52N 01°46' E 102°32'820.7
2017-Jun-21 08:29N 01°50' E 102°24'  
Track history (hours):
 
Tides and Currents Weather Stations Pressure Air Temp Water Temp Dewpoint Dewpoint Depression Visibility Wind Speed Wind Dir Waves Ship Positions

MOL Explorer

Last reported at 2017-Jun-22 10:12 UTC. Time now 2017-Jun-23 08:37 UTC.
Position N 01°16' E 104°07'.

Length 293 m; draft 13.5 m.

Type: Ship (hazmat cat A). MMSI: 372827000.

Date/timePositionNaut miles runAvg speedWind from/ knotsBaromVisibWave heightAir tempDewpointWater temp
2017-Jun-22 10:12N 01°16' E 104°07'313.9
2017-Jun-22 10:00N 01°15' E 104°04'714.0
2017-Jun-22 09:30N 01°14' E 103°57'5 9.5
2017-Jun-22 09:00N 01°14' E 103°52'2 3.8
2017-Jun-22 08:30N 01°15' E 103°51'0 0.2
2017-Jun-22 07:58N 01°16' E 103°51'0 0.0
2017-Jun-22 07:25N 01°16' E 103°51'0 0.0
2017-Jun-22 06:46N 01°16' E 103°51'0 0.0
2017-Jun-22 06:28N 01°16' E 103°51'0 0.0
2017-Jun-22 05:55N 01°16' E 103°51'0 0.0
2017-Jun-22 05:19N 01°16' E 103°51'0 0.0
2017-Jun-22 04:58N 01°16' E 103°51'0 0.0
2017-Jun-22 04:28N 01°16' E 103°51'0 0.0
2017-Jun-22 03:55N 01°16' E 103°51'0 0.0
2017-Jun-22 03:16N 01°16' E 103°51'0 0.0
2017-Jun-22 02:55N 01°16' E 103°51'0 0.0
2017-Jun-22 02:13N 01°16' E 103°51'0 0.0
2017-Jun-22 01:52N 01°16' E 103°51'0 0.0
2017-Jun-22 01:25N 01°16' E 103°51'0 0.0
2017-Jun-22 00:55N 01°16' E 103°51'0 0.0
2017-Jun-22 00:25N 01°16' E 103°51'0 0.0
2017-Jun-21 23:55N 01°16' E 103°51'0 0.0
2017-Jun-21 23:04N 01°16' E 103°51'0 0.0
2017-Jun-21 22:49N 01°16' E 103°51'0 0.0
2017-Jun-21 22:25N 01°16' E 103°51'0 0.0
2017-Jun-21 21:49N 01°16' E 103°51'0 0.0
2017-Jun-21 21:25N 01°16' E 103°51'0 0.0
2017-Jun-21 20:55N 01°16' E 103°51'0 0.0
2017-Jun-21 20:28N 01°16' E 103°51'0 0.0
2017-Jun-21 19:58N 01°16' E 103°51'0 0.0
2017-Jun-21 19:25N 01°16' E 103°51'0 0.0
2017-Jun-21 18:55N 01°16' E 103°51'0 0.0
2017-Jun-21 18:28N 01°16' E 103°51'0 0.0
2017-Jun-21 17:58N 01°16' E 103°51'0 0.0
2017-Jun-21 17:19N 01°16' E 103°51'0 0.0
2017-Jun-21 16:49N 01°16' E 103°51'0 0.0
2017-Jun-21 16:19N 01°16' E 103°51'0 1.0
2017-Jun-21 16:01N 01°15' E 103°51'3 6.7
2017-Jun-21 15:31N 01°14' E 103°54'2 4.3
2017-Jun-21 15:00N 01°12' E 103°53'3 5.6
2017-Jun-21 14:30N 01°11' E 103°50'1010.0
2017-Jun-21 13:30N 01°05' E 103°42'612.8
2017-Jun-21 13:01N 01°04' E 103°36'815.7
2017-Jun-21 12:30N 01°08' E 103°29'816.0
2017-Jun-21 12:00N 01°12' E 103°22'6119.4
2017-Jun-21 08:52N 01°46' E 102°32'820.7
2017-Jun-21 08:29N 01°50' E 102°24'  

Dump ship's entire track history